Flight Track Log - Related Links

Times and Time Zones

All times are in EDT time to prevent confusion due to time zone crossing. See the AFR7369 flight status page for this flight to view local times or setup timezone preferences in your user account.

Time Position Orientation Groundspeed Altitude Reporting Facility
EDT Latitude Longitude Course Direction KTS MPH feet Rate Location/Type
Fri 08:43:00 AM 48.5412 -2.9653 84° East  Level Estimated
Fri 08:44:00 AM 48.5462 -2.8796 85° East  Level Estimated
Fri 08:45:00 AM 48.5510 -2.7940 85° East  Level Estimated
Fri 08:46:00 AM 48.5558 -2.7083 85° East  Level Estimated
Fri 08:47:00 AM 48.5605 -2.6226 85° East  Level Estimated
Fri 08:48:00 AM 48.5652 -2.5369 85° East  Level Estimated
Fri 08:49:00 AM 48.5698 -2.4511 85° East  Level Estimated
Fri 08:50:00 AM 48.5743 -2.3654 85° East  Level Estimated
Fri 08:51:00 AM 48.5788 -2.2796 85° East  Level Estimated
Fri 08:52:00 AM 48.5832 -2.1939 86° East  Level Estimated
Fri 08:53:00 AM 48.5876 -2.1081 86° East  Level Estimated
Fri 08:54:00 AM 48.5919 -2.0223 86° East  Level Estimated
Fri 08:55:00 AM 48.5961 -1.9365 86° East  Level Estimated
Fri 08:56:00 AM 48.6002 -1.8506 86° East  Level Estimated
Fri 08:57:00 AM 48.6043 -1.7648 86° East  Level Estimated
Fri 08:58:00 AM 48.6083 -1.6789 86° East  Level Estimated
Fri 08:59:00 AM 48.6123 -1.5931 86° East  Level Estimated
Fri 09:00:00 AM 48.6162 -1.5072 86° East  Level Estimated
Fri 09:01:00 AM 48.6212 -1.3959 86° East  Level Estimated
Fri 09:02:00 AM 48.6260 -1.2846 86° East  Level Estimated
Fri 09:03:00 AM 48.6308 -1.1733 86° East  Level Estimated
Fri 09:04:00 AM 48.6354 -1.0620 86° East  Level Estimated
Fri 09:05:00 AM 48.6399 -0.9507 86° East  Level Estimated
Fri 09:06:00 AM 48.6443 -0.8394 87° East  Level Estimated
Fri 09:07:00 AM 48.6487 -0.7280 87° East  Level Estimated
Fri 09:08:00 AM 48.6529 -0.6166 87° East  Level Estimated
Fri 09:09:00 AM 48.6570 -0.5052 87° East  Level Estimated
Fri 09:10:00 AM 48.6609 -0.3938 87° East  Level Estimated
Fri 09:11:00 AM 48.6648 -0.2823 87° East  Level Estimated
Fri 09:12:00 AM 48.6686 -0.1708 87° East  Level Estimated
Fri 09:13:00 AM 48.6723 -0.0594 87° East  Level Estimated
Fri 09:14:00 AM 48.6758 0.0521 87° East  Level Estimated
Fri 09:15:00 AM 48.6793 0.1636 87° East  Level Estimated
Fri 09:16:00 AM 48.6826 0.2752 87° East  Level Estimated
Fri 09:17:00 AM 48.6859 0.3867 87° East  Level Estimated
Fri 09:18:00 AM 48.6890 0.4983 88° East  Level Estimated
Fri 09:19:00 AM 48.6920 0.6098 88° East  Level Estimated
Fri 09:20:00 AM 48.6949 0.7214 88° East  Level Estimated
Fri 09:21:00 AM 48.6979 0.8388 88° East  Level Estimated
Fri 09:22:00 AM 48.7007 0.9561 88° East  Level Estimated
Fri 09:23:00 AM 48.7034 1.0735 88° East  Level Estimated
Fri 09:24:00 AM 48.7060 1.1909 88° East  Level Estimated
Fri 09:25:00 AM 48.7085 1.3084 88° East  Level Estimated
Fri 09:26:00 AM 48.7108 1.4258 88° East  Level Estimated
Fri 09:27:00 AM 48.7131 1.5432 88° East  Level Estimated
Fri 09:28:00 AM 48.7152 1.6607 88° East  Level Estimated
Fri 09:29:00 AM 48.7172 1.7781 88° East  Level Estimated
Fri 09:30:00 AM 48.7190 1.8956 89° East  Level Estimated
Fri 09:31:00 AM 48.7208 2.0131 89° East  Level Estimated
Fri 09:32:00 AM 48.7224 2.1306 89° East  Level Estimated
Fri 09:33:00 AM 48.7239 2.2481 89° East  Level Estimated
Fri 09:34:00 AM 48.7253 2.3594 89° East  Level Estimated
Fri 09:35:00 AM 48.7253 2.3594 127° Southeast  Level Estimated
Fri 09:36:00 AM 48.7253 2.3594 127° Southeast  Level Estimated
Fri 09:37:00 AM 48.7253 2.3594 127° Southeast  Level Estimated
Fri 09:38:00 AM 48.7253 2.3594 127° Southeast  Level Estimated
Fri 09:39:00 AM 48.7253 2.3594 127° Southeast  Level Estimated
Fri 09:40:00 AM 48.7253 2.3594 127° Southeast  Level Estimated

Login

Don't have an account? Register now (free) for customized features, flight alerts, and more!